sensor_id;sensor_type;location;lat;lon;timestamp;temperature;humidity
23079;DHT22;11707;50.830;4.364;2024-03-06T00:02:10;8.80;1.00
23079;DHT22;11707;50.830;4.364;2024-03-06T00:04:39;8.70;1.00
23079;DHT22;11707;50.830;4.364;2024-03-06T00:07:04;8.70;1.00
23079;DHT22;11707;50.830;4.364;2024-03-06T00:09:30;8.70;1.00
23079;DHT22;11707;50.830;4.364;2024-03-06T00:11:57;8.80;1.00
23079;DHT22;11707;50.830;4.364;2024-03-06T00:14:25;8.70;1.00
23079;DHT22;11707;50.830;4.364;2024-03-06T00:16:51;8.70;1.00
23079;DHT22;11707;50.830;4.364;2024-03-06T00:19:18;8.80;1.00
23079;DHT22;11707;50.830;4.364;2024-03-06T00:21:43;8.80;1.00
23079;DHT22;11707;50.830;4.364;2024-03-06T00:24:12;8.90;1.00
23079;DHT22;11707;50.830;4.364;2024-03-06T00:26:40;9.00;1.00
23079;DHT22;11707;50.830;4.364;2024-03-06T00:29:06;9.20;99.90
23079;DHT22;11707;50.830;4.364;2024-03-06T00:31:32;9.10;99.90
23079;DHT22;11707;50.830;4.364;2024-03-06T00:33:57;9.00;1.00
23079;DHT22;11707;50.830;4.364;2024-03-06T00:36:23;8.80;1.00
23079;DHT22;11707;50.830;4.364;2024-03-06T00:38:49;8.80;1.00
23079;DHT22;11707;50.830;4.364;2024-03-06T00:41:14;8.60;1.00
23079;DHT22;11707;50.830;4.364;2024-03-06T00:43:40;8.50;1.00
23079;DHT22;11707;50.830;4.364;2024-03-06T00:46:06;8.40;1.00
23079;DHT22;11707;50.830;4.364;2024-03-06T00:48:31;8.40;1.00
23079;DHT22;11707;50.830;4.364;2024-03-06T00:50:57;8.40;1.00
23079;DHT22;11707;50.830;4.364;2024-03-06T00:53:23;8.50;1.00
23079;DHT22;11707;50.830;4.364;2024-03-06T00:55:49;8.60;1.00
23079;DHT22;11707;50.830;4.364;2024-03-06T00:58:15;8.70;1.00
23079;DHT22;11707;50.830;4.364;2024-03-06T01:00:41;8.70;1.00
23079;DHT22;11707;50.830;4.364;2024-03-06T01:03:06;8.60;1.00
23079;DHT22;11707;50.830;4.364;2024-03-06T01:05:32;8.40;1.00
23079;DHT22;11707;50.830;4.364;2024-03-06T01:07:58;8.20;1.00
23079;DHT22;11707;50.830;4.364;2024-03-06T01:10:24;8.10;1.00
23079;DHT22;11707;50.830;4.364;2024-03-06T01:12:50;8.10;1.00
23079;DHT22;11707;50.830;4.364;2024-03-06T01:15:19;8.20;1.00
23079;DHT22;11707;50.830;4.364;2024-03-06T01:17:44;8.30;1.00
23079;DHT22;11707;50.830;4.364;2024-03-06T01:20:12;8.40;1.00
23079;DHT22;11707;50.830;4.364;2024-03-06T01:22:40;8.60;1.00
23079;DHT22;11707;50.830;4.364;2024-03-06T01:30:22;8.20;1.00
23079;DHT22;11707;50.830;4.364;2024-03-06T01:32:47;8.10;1.00
23079;DHT22;11707;50.830;4.364;2024-03-06T01:35:13;8.10;1.00
23079;DHT22;11707;50.830;4.364;2024-03-06T01:37:39;8.00;1.00
23079;DHT22;11707;50.830;4.364;2024-03-06T01:40:05;8.00;1.00
23079;DHT22;11707;50.830;4.364;2024-03-06T01:42:35;7.90;1.00
23079;DHT22;11707;50.830;4.364;2024-03-06T01:45:02;7.90;1.00
23079;DHT22;11707;50.830;4.364;2024-03-06T01:47:28;8.00;1.00
23079;DHT22;11707;50.830;4.364;2024-03-06T01:49:54;7.90;1.00
23079;DHT22;11707;50.830;4.364;2024-03-06T01:52:21;7.90;1.00
23079;DHT22;11707;50.830;4.364;2024-03-06T01:54:48;7.80;1.00
23079;DHT22;11707;50.830;4.364;2024-03-06T01:57:16;7.70;2.30
23079;DHT22;11707;50.830;4.364;2024-03-06T01:59:43;7.70;14.40
23079;DHT22;11707;50.830;4.364;2024-03-06T02:02:09;7.60;11.50
23079;DHT22;11707;50.830;4.364;2024-03-06T02:04:37;7.70;17.10
23079;DHT22;11707;50.830;4.364;2024-03-06T02:07:03;7.50;21.10
23079;DHT22;11707;50.830;4.364;2024-03-06T02:09:33;7.50;26.90
23079;DHT22;11707;50.830;4.364;2024-03-06T02:11:59;7.50;25.20
23079;DHT22;11707;50.830;4.364;2024-03-06T02:14:26;7.60;29.20
23079;DHT22;11707;50.830;4.364;2024-03-06T02:16:55;7.60;27.60
23079;DHT22;11707;50.830;4.364;2024-03-06T02:19:22;7.70;25.10
23079;DHT22;11707;50.830;4.364;2024-03-06T02:21:48;7.70;16.70
23079;DHT22;11707;50.830;4.364;2024-03-06T02:24:14;7.70;12.60
23079;DHT22;11707;50.830;4.364;2024-03-06T02:26:39;7.70;7.50
23079;DHT22;11707;50.830;4.364;2024-03-06T02:29:06;7.60;15.30
23079;DHT22;11707;50.830;4.364;2024-03-06T02:31:31;7.60;14.50
23079;DHT22;11707;50.830;4.364;2024-03-06T02:33:58;7.50;18.30
23079;DHT22;11707;50.830;4.364;2024-03-06T02:36:24;7.50;18.60
23079;DHT22;11707;50.830;4.364;2024-03-06T02:38:50;7.40;20.00
23079;DHT22;11707;50.830;4.364;2024-03-06T02:41:15;7.40;28.50
23079;DHT22;11707;50.830;4.364;2024-03-06T02:43:41;7.40;31.60
23079;DHT22;11707;50.830;4.364;2024-03-06T02:46:10;7.50;28.30
23079;DHT22;11707;50.830;4.364;2024-03-06T02:48:35;7.60;26.00
23079;DHT22;11707;50.830;4.364;2024-03-06T02:51:01;7.60;12.20
23079;DHT22;11707;50.830;4.364;2024-03-06T02:53:27;7.50;13.20
23079;DHT22;11707;50.830;4.364;2024-03-06T02:55:53;7.40;24.10
23079;DHT22;11707;50.830;4.364;2024-03-06T02:58:18;7.30;25.90
23079;DHT22;11707;50.830;4.364;2024-03-06T03:00:44;7.30;29.90
23079;DHT22;11707;50.830;4.364;2024-03-06T03:03:12;7.50;30.40
23079;DHT22;11707;50.830;4.364;2024-03-06T03:05:38;7.50;19.20
23079;DHT22;11707;50.830;4.364;2024-03-06T03:08:05;7.60;13.30
23079;DHT22;11707;50.830;4.364;2024-03-06T03:10:31;7.60;6.00
23079;DHT22;11707;50.830;4.364;2024-03-06T03:12:57;7.70;5.80
23079;DHT22;11707;50.830;4.364;2024-03-06T03:15:25;7.90;1.00
23079;DHT22;11707;50.830;4.364;2024-03-06T03:17:51;7.60;1.00
23079;DHT22;11707;50.830;4.364;2024-03-06T03:20:17;7.40;7.00
23079;DHT22;11707;50.830;4.364;2024-03-06T03:22:43;7.50;14.10
23079;DHT22;11707;50.830;4.364;2024-03-06T03:25:12;7.50;19.10
23079;DHT22;11707;50.830;4.364;2024-03-06T03:27:39;7.50;15.20
23079;DHT22;11707;50.830;4.364;2024-03-06T03:30:10;7.60;16.10
23079;DHT22;11707;50.830;4.364;2024-03-06T03:32:36;7.70;5.50
23079;DHT22;11707;50.830;4.364;2024-03-06T03:35:04;7.70;1.00
23079;DHT22;11707;50.830;4.364;2024-03-06T03:37:31;7.60;2.60
23079;DHT22;11707;50.830;4.364;2024-03-06T03:39:56;7.30;8.00
23079;DHT22;11707;50.830;4.364;2024-03-06T03:42:22;7.20;29.20
23079;DHT22;11707;50.830;4.364;2024-03-06T03:44:48;7.20;33.90
23079;DHT22;11707;50.830;4.364;2024-03-06T03:47:14;7.20;37.70
23079;DHT22;11707;50.830;4.364;2024-03-06T03:49:39;7.20;34.90
23079;DHT22;11707;50.830;4.364;2024-03-06T03:52:08;7.30;38.40
23079;DHT22;11707;50.830;4.364;2024-03-06T03:54:33;7.30;30.00
23079;DHT22;11707;50.830;4.364;2024-03-06T03:57:00;7.30;30.10
23079;DHT22;11707;50.830;4.364;2024-03-06T03:59:25;7.20;29.80
23079;DHT22;11707;50.830;4.364;2024-03-06T04:01:51;7.10;37.70
23079;DHT22;11707;50.830;4.364;2024-03-06T04:04:17;7.10;45.40
23079;DHT22;11707;50.830;4.364;2024-03-06T04:06:43;7.10;46.10
23079;DHT22;11707;50.830;4.364;2024-03-06T04:09:09;7.10;46.90
23079;DHT22;11707;50.830;4.364;2024-03-06T04:11:40;7.10;48.60
23079;DHT22;11707;50.830;4.364;2024-03-06T04:14:06;7.20;49.00
23079;DHT22;11707;50.830;4.364;2024-03-06T04:16:35;7.40;43.90
23079;DHT22;11707;50.830;4.364;2024-03-06T04:19:01;7.50;33.80
23079;DHT22;11707;50.830;4.364;2024-03-06T04:21:27;7.50;26.80
23079;DHT22;11707;50.830;4.364;2024-03-06T04:23:53;7.30;24.50
23079;DHT22;11707;50.830;4.364;2024-03-06T04:26:18;7.30;29.50
23079;DHT22;11707;50.830;4.364;2024-03-06T04:28:44;7.50;23.10
23079;DHT22;11707;50.830;4.364;2024-03-06T04:31:10;7.70;8.80
23079;DHT22;11707;50.830;4.364;2024-03-06T04:33:36;7.70;1.00
23079;DHT22;11707;50.830;4.364;2024-03-06T04:36:03;7.70;1.00
23079;DHT22;11707;50.830;4.364;2024-03-06T04:38:33;7.70;1.00
23079;DHT22;11707;50.830;4.364;2024-03-06T04:41:01;7.70;1.00
23079;DHT22;11707;50.830;4.364;2024-03-06T04:43:27;7.80;1.00
23079;DHT22;11707;50.830;4.364;2024-03-06T04:45:53;7.60;1.00
23079;DHT22;11707;50.830;4.364;2024-03-06T04:48:19;7.40;1.00
23079;DHT22;11707;50.830;4.364;2024-03-06T04:50:44;7.40;4.30
23079;DHT22;11707;50.830;4.364;2024-03-06T04:53:10;7.30;13.10
23079;DHT22;11707;50.830;4.364;2024-03-06T04:55:36;7.20;20.90
23079;DHT22;11707;50.830;4.364;2024-03-06T04:58:02;7.40;17.70
23079;DHT22;11707;50.830;4.364;2024-03-06T05:00:29;7.50;9.60
23079;DHT22;11707;50.830;4.364;2024-03-06T05:02:54;7.50;5.00
23079;DHT22;11707;50.830;4.364;2024-03-06T05:05:21;7.50;4.30
23079;DHT22;11707;50.830;4.364;2024-03-06T05:07:48;7.60;1.00
23079;DHT22;11707;50.830;4.364;2024-03-06T05:10:14;7.70;1.00
23079;DHT22;11707;50.830;4.364;2024-03-06T05:12:41;7.40;1.00
23079;DHT22;11707;50.830;4.364;2024-03-06T05:15:07;7.30;4.40
23079;DHT22;11707;50.830;4.364;2024-03-06T05:17:33;7.30;7.00
23079;DHT22;11707;50.830;4.364;2024-03-06T05:19:59;7.30;16.00
23079;DHT22;11707;50.830;4.364;2024-03-06T05:22:27;7.30;15.80
23079;DHT22;11707;50.830;4.364;2024-03-06T05:24:53;7.40;14.10
23079;DHT22;11707;50.830;4.364;2024-03-06T05:27:21;7.50;4.60
23079;DHT22;11707;50.830;4.364;2024-03-06T05:29:47;7.60;2.20
23079;DHT22;11707;50.830;4.364;2024-03-06T05:32:15;7.40;1.00
23079;DHT22;11707;50.830;4.364;2024-03-06T05:34:41;7.30;2.40
23079;DHT22;11707;50.830;4.364;2024-03-06T05:37:07;7.30;16.10
23079;DHT22;11707;50.830;4.364;2024-03-06T05:39:35;7.30;14.00
23079;DHT22;11707;50.830;4.364;2024-03-06T05:42:02;7.20;14.60
23079;DHT22;11707;50.830;4.364;2024-03-06T05:44:33;7.30;15.80
23079;DHT22;11707;50.830;4.364;2024-03-06T05:47:00;7.30;10.80
23079;DHT22;11707;50.830;4.364;2024-03-06T05:49:31;7.30;11.00
23079;DHT22;11707;50.830;4.364;2024-03-06T05:51:58;7.40;12.80
23079;DHT22;11707;50.830;4.364;2024-03-06T05:54:24;7.50;6.90
23079;DHT22;11707;50.830;4.364;2024-03-06T05:56:50;7.60;2.20
23079;DHT22;11707;50.830;4.364;2024-03-06T05:59:19;7.60;1.00
23079;DHT22;11707;50.830;4.364;2024-03-06T06:01:45;7.60;1.00
23079;DHT22;11707;50.830;4.364;2024-03-06T06:04:12;7.50;1.00
23079;DHT22;11707;50.830;4.364;2024-03-06T06:06:39;7.60;1.00
23079;DHT22;11707;50.830;4.364;2024-03-06T06:09:05;7.60;1.00
23079;DHT22;11707;50.830;4.364;2024-03-06T06:11:31;7.70;1.00
23079;DHT22;11707;50.830;4.364;2024-03-06T06:13:58;7.50;1.00
23079;DHT22;11707;50.830;4.364;2024-03-06T06:16:24;7.50;1.00
23079;DHT22;11707;50.830;4.364;2024-03-06T06:18:50;7.50;1.00
23079;DHT22;11707;50.830;4.364;2024-03-06T06:21:16;7.50;1.00
23079;DHT22;11707;50.830;4.364;2024-03-06T06:23:42;7.60;1.00
23079;DHT22;11707;50.830;4.364;2024-03-06T06:26:08;7.60;1.00
23079;DHT22;11707;50.830;4.364;2024-03-06T06:28:36;7.80;1.00
23079;DHT22;11707;50.830;4.364;2024-03-06T06:31:05;8.00;1.00
23079;DHT22;11707;50.830;4.364;2024-03-06T06:33:31;8.20;1.00
23079;DHT22;11707;50.830;4.364;2024-03-06T06:35:57;8.10;1.00
23079;DHT22;11707;50.830;4.364;2024-03-06T06:38:22;8.10;1.00
23079;DHT22;11707;50.830;4.364;2024-03-06T06:40:48;7.90;1.00
23079;DHT22;11707;50.830;4.364;2024-03-06T06:43:14;7.70;1.00
23079;DHT22;11707;50.830;4.364;2024-03-06T06:45:40;7.60;1.00
23079;DHT22;11707;50.830;4.364;2024-03-06T06:48:06;7.60;1.00
23079;DHT22;11707;50.830;4.364;2024-03-06T06:50:34;7.70;1.00
23079;DHT22;11707;50.830;4.364;2024-03-06T06:53:02;7.80;1.00
23079;DHT22;11707;50.830;4.364;2024-03-06T06:55:28;7.80;1.00
23079;DHT22;11707;50.830;4.364;2024-03-06T06:57:56;7.80;1.00
23079;DHT22;11707;50.830;4.364;2024-03-06T07:00:22;7.80;1.00
23079;DHT22;11707;50.830;4.364;2024-03-06T07:02:50;7.90;1.00
23079;DHT22;11707;50.830;4.364;2024-03-06T07:05:16;7.90;1.00
23079;DHT22;11707;50.830;4.364;2024-03-06T07:07:44;7.80;1.00
23079;DHT22;11707;50.830;4.364;2024-03-06T07:10:10;7.90;1.00
23079;DHT22;11707;50.830;4.364;2024-03-06T07:12:39;8.00;1.00
23079;DHT22;11707;50.830;4.364;2024-03-06T07:15:06;8.00;1.00
23079;DHT22;11707;50.830;4.364;2024-03-06T07:17:32;8.10;1.00
23079;DHT22;11707;50.830;4.364;2024-03-06T07:20:00;8.10;1.00
23079;DHT22;11707;50.830;4.364;2024-03-06T07:22:26;8.10;1.00
23079;DHT22;11707;50.830;4.364;2024-03-06T07:24:52;8.20;1.00
23079;DHT22;11707;50.830;4.364;2024-03-06T07:27:17;8.20;1.00
23079;DHT22;11707;50.830;4.364;2024-03-06T07:29:44;8.20;1.00
23079;DHT22;11707;50.830;4.364;2024-03-06T07:32:09;8.20;1.00
23079;DHT22;11707;50.830;4.364;2024-03-06T07:34:36;8.20;1.00
23079;DHT22;11707;50.830;4.364;2024-03-06T07:37:04;8.20;1.00
23079;DHT22;11707;50.830;4.364;2024-03-06T07:39:30;8.10;1.00
23079;DHT22;11707;50.830;4.364;2024-03-06T07:41:56;8.20;1.00
23079;DHT22;11707;50.830;4.364;2024-03-06T07:44:22;8.30;1.00
23079;DHT22;11707;50.830;4.364;2024-03-06T07:46:48;8.40;1.00
23079;DHT22;11707;50.830;4.364;2024-03-06T07:49:14;8.40;1.00
23079;DHT22;11707;50.830;4.364;2024-03-06T07:51:42;8.40;1.00
23079;DHT22;11707;50.830;4.364;2024-03-06T07:54:10;8.50;1.00
23079;DHT22;11707;50.830;4.364;2024-03-06T07:56:36;8.50;1.00
23079;DHT22;11707;50.830;4.364;2024-03-06T07:59:02;8.30;1.00
23079;DHT22;11707;50.830;4.364;2024-03-06T08:01:27;8.30;1.00
23079;DHT22;11707;50.830;4.364;2024-03-06T08:03:56;8.30;1.00
23079;DHT22;11707;50.830;4.364;2024-03-06T08:06:22;8.40;1.00
23079;DHT22;11707;50.830;4.364;2024-03-06T08:08:47;8.50;1.00
23079;DHT22;11707;50.830;4.364;2024-03-06T08:11:14;8.60;1.00
23079;DHT22;11707;50.830;4.364;2024-03-06T08:13:40;8.70;1.00
23079;DHT22;11707;50.830;4.364;2024-03-06T08:16:07;8.70;1.00
23079;DHT22;11707;50.830;4.364;2024-03-06T08:18:33;8.70;99.90
23079;DHT22;11707;50.830;4.364;2024-03-06T08:20:59;8.80;1.00
23079;DHT22;11707;50.830;4.364;2024-03-06T08:23:24;9.00;99.90
23079;DHT22;11707;50.830;4.364;2024-03-06T08:25:51;9.00;99.90
23079;DHT22;11707;50.830;4.364;2024-03-06T08:28:16;8.90;99.90
23079;DHT22;11707;50.830;4.364;2024-03-06T08:30:42;8.90;99.90
23079;DHT22;11707;50.830;4.364;2024-03-06T08:33:10;9.10;99.90
23079;DHT22;11707;50.830;4.364;2024-03-06T08:35:38;9.10;99.90
23079;DHT22;11707;50.830;4.364;2024-03-06T08:38:04;9.10;99.90
23079;DHT22;11707;50.830;4.364;2024-03-06T08:40:32;9.20;99.90
23079;DHT22;11707;50.830;4.364;2024-03-06T08:42:57;9.30;99.90
23079;DHT22;11707;50.830;4.364;2024-03-06T08:45:24;9.30;99.90
23079;DHT22;11707;50.830;4.364;2024-03-06T08:47:50;9.60;99.90
23079;DHT22;11707;50.830;4.364;2024-03-06T08:50:19;9.60;99.90
23079;DHT22;11707;50.830;4.364;2024-03-06T08:52:45;9.70;99.90
23079;DHT22;11707;50.830;4.364;2024-03-06T08:55:11;9.70;83.50
23079;DHT22;11707;50.830;4.364;2024-03-06T08:57:38;9.60;99.90
23079;DHT22;11707;50.830;4.364;2024-03-06T09:00:05;9.60;99.90
23079;DHT22;11707;50.830;4.364;2024-03-06T09:02:38;9.70;99.90
23079;DHT22;11707;50.830;4.364;2024-03-06T09:05:05;9.70;99.90
23079;DHT22;11707;50.830;4.364;2024-03-06T09:07:31;9.60;99.90
23079;DHT22;11707;50.830;4.364;2024-03-06T09:09:56;9.50;99.90
23079;DHT22;11707;50.830;4.364;2024-03-06T09:12:22;9.50;99.90
23079;DHT22;11707;50.830;4.364;2024-03-06T09:14:48;9.50;99.90
23079;DHT22;11707;50.830;4.364;2024-03-06T09:17:14;9.50;99.90
23079;DHT22;11707;50.830;4.364;2024-03-06T09:19:40;9.60;99.90
23079;DHT22;11707;50.830;4.364;2024-03-06T09:22:11;9.60;99.90
23079;DHT22;11707;50.830;4.364;2024-03-06T09:24:36;9.70;99.90
23079;DHT22;11707;50.830;4.364;2024-03-06T09:27:04;9.80;99.90
23079;DHT22;11707;50.830;4.364;2024-03-06T09:29:32;10.10;99.90
23079;DHT22;11707;50.830;4.364;2024-03-06T09:31:58;10.10;35.90
23079;DHT22;11707;50.830;4.364;2024-03-06T09:34:24;10.00;23.10
23079;DHT22;11707;50.830;4.364;2024-03-06T09:36:56;10.00;19.70
23079;DHT22;11707;50.830;4.364;2024-03-06T09:39:21;10.10;59.00
23079;DHT22;11707;50.830;4.364;2024-03-06T09:41:52;10.10;84.60
23079;DHT22;11707;50.830;4.364;2024-03-06T09:44:19;10.30;71.30
23079;DHT22;11707;50.830;4.364;2024-03-06T09:46:46;10.50;50.20
23079;DHT22;11707;50.830;4.364;2024-03-06T09:49:16;10.80;33.10
23079;DHT22;11707;50.830;4.364;2024-03-06T09:51:44;10.90;1.00
23079;DHT22;11707;50.830;4.364;2024-03-06T09:54:16;11.20;1.00
23079;DHT22;11707;50.830;4.364;2024-03-06T09:56:46;11.20;99.90
23079;DHT22;11707;50.830;4.364;2024-03-06T09:59:12;11.60;99.90
23079;DHT22;11707;50.830;4.364;2024-03-06T10:01:49;11.70;1.00
23079;DHT22;11707;50.830;4.364;2024-03-06T10:04:23;11.80;99.90
23079;DHT22;11707;50.830;4.364;2024-03-06T10:06:54;12.10;99.90
23079;DHT22;11707;50.830;4.364;2024-03-06T10:09:20;12.10;1.00
23079;DHT22;11707;50.830;4.364;2024-03-06T10:11:46;12.00;1.00
23079;DHT22;11707;50.830;4.364;2024-03-06T10:14:13;12.10;1.00
23079;DHT22;11707;50.830;4.364;2024-03-06T10:16:55;12.30;99.90
23079;DHT22;11707;50.830;4.364;2024-03-06T10:19:28;12.10;1.00
23079;DHT22;11707;50.830;4.364;2024-03-06T10:21:55;11.90;1.00
23079;DHT22;11707;50.830;4.364;2024-03-06T10:24:24;11.70;99.90
23079;DHT22;11707;50.830;4.364;2024-03-06T10:26:58;11.60;99.90
23079;DHT22;11707;50.830;4.364;2024-03-06T10:29:26;11.70;1.00
23079;DHT22;11707;50.830;4.364;2024-03-06T10:31:53;12.00;99.90
23079;DHT22;11707;50.830;4.364;2024-03-06T10:34:29;11.70;99.90
23079;DHT22;11707;50.830;4.364;2024-03-06T10:37:02;11.40;99.90
23079;DHT22;11707;50.830;4.364;2024-03-06T10:39:33;11.30;99.90
23079;DHT22;11707;50.830;4.364;2024-03-06T10:44:52;11.40;99.90
23079;DHT22;11707;50.830;4.364;2024-03-06T10:47:19;11.30;99.90
23079;DHT22;11707;50.830;4.364;2024-03-06T10:49:47;11.30;99.90
23079;DHT22;11707;50.830;4.364;2024-03-06T10:52:13;11.40;1.00
23079;DHT22;11707;50.830;4.364;2024-03-06T10:54:44;11.40;1.00
23079;DHT22;11707;50.830;4.364;2024-03-06T10:57:14;11.40;1.00
23079;DHT22;11707;50.830;4.364;2024-03-06T10:59:43;11.50;99.90
23079;DHT22;11707;50.830;4.364;2024-03-06T11:02:10;11.40;99.90
23079;DHT22;11707;50.830;4.364;2024-03-06T11:04:39;11.20;99.90
23079;DHT22;11707;50.830;4.364;2024-03-06T11:07:05;11.20;99.90
23079;DHT22;11707;50.830;4.364;2024-03-06T11:09:36;11.40;99.90
23079;DHT22;11707;50.830;4.364;2024-03-06T11:12:03;11.30;99.90
23079;DHT22;11707;50.830;4.364;2024-03-06T11:14:32;11.20;99.90
23079;DHT22;11707;50.830;4.364;2024-03-06T11:17:11;11.10;99.90
23079;DHT22;11707;50.830;4.364;2024-03-06T11:28:22;11.60;99.90
23079;DHT22;11707;50.830;4.364;2024-03-06T11:33:17;12.10;40.80
23079;DHT22;11707;50.830;4.364;2024-03-06T11:35:43;12.30;99.90
23079;DHT22;11707;50.830;4.364;2024-03-06T11:38:17;12.40;1.00
23079;DHT22;11707;50.830;4.364;2024-03-06T11:40:43;12.20;1.00
23079;DHT22;11707;50.830;4.364;2024-03-06T11:43:25;12.20;1.00
23079;DHT22;11707;50.830;4.364;2024-03-06T11:46:05;12.00;99.90
23079;DHT22;11707;50.830;4.364;2024-03-06T11:48:32;11.90;99.90
23079;DHT22;11707;50.830;4.364;2024-03-06T11:50:58;12.00;99.90
23079;DHT22;11707;50.830;4.364;2024-03-06T11:53:27;11.90;99.90
23079;DHT22;11707;50.830;4.364;2024-03-06T11:55:54;11.90;1.00
23079;DHT22;11707;50.830;4.364;2024-03-06T11:58:20;11.70;99.90
23079;DHT22;11707;50.830;4.364;2024-03-06T12:00:49;11.90;99.90
23079;DHT22;11707;50.830;4.364;2024-03-06T12:03:15;12.00;99.90
23079;DHT22;11707;50.830;4.364;2024-03-06T12:05:44;12.00;99.90
23079;DHT22;11707;50.830;4.364;2024-03-06T12:08:16;12.00;1.00
23079;DHT22;11707;50.830;4.364;2024-03-06T12:10:45;11.90;30.00
23079;DHT22;11707;50.830;4.364;2024-03-06T12:13:13;12.00;1.00
23079;DHT22;11707;50.830;4.364;2024-03-06T12:15:42;12.00;1.00
23079;DHT22;11707;50.830;4.364;2024-03-06T12:18:10;12.10;1.00
23079;DHT22;11707;50.830;4.364;2024-03-06T12:20:41;12.20;99.90
23079;DHT22;11707;50.830;4.364;2024-03-06T12:23:07;12.40;99.90
23079;DHT22;11707;50.830;4.364;2024-03-06T12:25:32;12.60;99.90
23079;DHT22;11707;50.830;4.364;2024-03-06T12:28:07;12.80;1.00
23079;DHT22;11707;50.830;4.364;2024-03-06T12:30:42;13.00;99.90
23079;DHT22;11707;50.830;4.364;2024-03-06T12:33:09;12.90;99.90
23079;DHT22;11707;50.830;4.364;2024-03-06T12:35:42;12.80;99.90
23079;DHT22;11707;50.830;4.364;2024-03-06T12:38:14;12.80;99.90
23079;DHT22;11707;50.830;4.364;2024-03-06T12:40:41;12.80;99.90
23079;DHT22;11707;50.830;4.364;2024-03-06T12:43:07;12.90;99.90
23079;DHT22;11707;50.830;4.364;2024-03-06T12:45:34;13.00;99.90
23079;DHT22;11707;50.830;4.364;2024-03-06T12:48:02;13.00;99.90
23079;DHT22;11707;50.830;4.364;2024-03-06T12:50:30;13.00;99.90
23079;DHT22;11707;50.830;4.364;2024-03-06T12:52:56;12.90;99.90
23079;DHT22;11707;50.830;4.364;2024-03-06T12:55:21;12.80;99.90
23079;DHT22;11707;50.830;4.364;2024-03-06T12:57:49;12.90;99.90
23079;DHT22;11707;50.830;4.364;2024-03-06T13:00:16;13.10;99.90
23079;DHT22;11707;50.830;4.364;2024-03-06T13:02:42;13.30;1.00
23079;DHT22;11707;50.830;4.364;2024-03-06T13:05:09;13.30;99.90
23079;DHT22;11707;50.830;4.364;2024-03-06T13:07:35;13.30;99.90
23079;DHT22;11707;50.830;4.364;2024-03-06T13:10:04;13.20;99.90
23079;DHT22;11707;50.830;4.364;2024-03-06T13:12:30;13.10;99.90
23079;DHT22;11707;50.830;4.364;2024-03-06T13:14:55;13.10;99.90
23079;DHT22;11707;50.830;4.364;2024-03-06T13:17:22;13.00;99.90
23079;DHT22;11707;50.830;4.364;2024-03-06T13:19:47;13.00;1.00
23079;DHT22;11707;50.830;4.364;2024-03-06T13:22:16;13.10;1.00
23079;DHT22;11707;50.830;4.364;2024-03-06T13:24:42;13.10;1.00
23079;DHT22;11707;50.830;4.364;2024-03-06T13:27:10;13.20;99.90
23079;DHT22;11707;50.830;4.364;2024-03-06T13:29:36;13.30;99.90
23079;DHT22;11707;50.830;4.364;2024-03-06T13:32:06;13.30;99.90
23079;DHT22;11707;50.830;4.364;2024-03-06T13:34:34;13.40;99.90
23079;DHT22;11707;50.830;4.364;2024-03-06T13:37:00;13.50;99.90
23079;DHT22;11707;50.830;4.364;2024-03-06T13:39:30;13.40;99.90
23079;DHT22;11707;50.830;4.364;2024-03-06T13:41:59;13.40;99.90
23079;DHT22;11707;50.830;4.364;2024-03-06T13:44:25;13.40;99.90
23079;DHT22;11707;50.830;4.364;2024-03-06T13:46:53;13.40;99.90
23079;DHT22;11707;50.830;4.364;2024-03-06T13:52:03;13.70;7.60
23079;DHT22;11707;50.830;4.364;2024-03-06T13:54:31;13.80;1.00
23079;DHT22;11707;50.830;4.364;2024-03-06T13:57:01;13.70;1.00
23079;DHT22;11707;50.830;4.364;2024-03-06T13:59:33;14.30;1.00
23079;DHT22;11707;50.830;4.364;2024-03-06T14:02:03;15.50;99.90
23079;DHT22;11707;50.830;4.364;2024-03-06T14:04:29;16.30;99.90
23079;DHT22;11707;50.830;4.364;2024-03-06T14:06:56;16.30;57.40
23079;DHT22;11707;50.830;4.364;2024-03-06T14:09:25;16.20;19.40
23079;DHT22;11707;50.830;4.364;2024-03-06T14:11:51;16.00;3.70
23079;DHT22;11707;50.830;4.364;2024-03-06T14:14:20;15.90;4.40
23079;DHT22;11707;50.830;4.364;2024-03-06T14:16:48;15.50;16.70
23079;DHT22;11707;50.830;4.364;2024-03-06T14:19:13;15.00;24.50
23079;DHT22;11707;50.830;4.364;2024-03-06T14:21:39;14.60;88.90
23079;DHT22;11707;50.830;4.364;2024-03-06T14:24:05;14.60;99.90
23079;DHT22;11707;50.830;4.364;2024-03-06T14:26:32;14.30;84.40
23079;DHT22;11707;50.830;4.364;2024-03-06T14:28:58;14.00;72.00
23079;DHT22;11707;50.830;4.364;2024-03-06T14:31:24;13.90;64.50
23079;DHT22;11707;50.830;4.364;2024-03-06T14:33:50;13.80;93.20
23079;DHT22;11707;50.830;4.364;2024-03-06T14:36:19;13.60;99.90
23079;DHT22;11707;50.830;4.364;2024-03-06T14:38:47;13.60;99.90
23079;DHT22;11707;50.830;4.364;2024-03-06T14:41:13;13.50;99.90
23079;DHT22;11707;50.830;4.364;2024-03-06T14:43:43;13.40;99.90
23079;DHT22;11707;50.830;4.364;2024-03-06T14:46:10;13.50;99.90
23079;DHT22;11707;50.830;4.364;2024-03-06T14:48:39;13.50;99.90
23079;DHT22;11707;50.830;4.364;2024-03-06T14:51:06;13.50;99.90
23079;DHT22;11707;50.830;4.364;2024-03-06T14:53:32;13.40;99.90
23079;DHT22;11707;50.830;4.364;2024-03-06T14:55:57;13.30;99.90
23079;DHT22;11707;50.830;4.364;2024-03-06T14:58:23;13.50;99.90
23079;DHT22;11707;50.830;4.364;2024-03-06T15:00:50;13.90;99.90
23079;DHT22;11707;50.830;4.364;2024-03-06T15:03:16;14.20;99.90
23079;DHT22;11707;50.830;4.364;2024-03-06T15:05:43;14.50;99.90
23079;DHT22;11707;50.830;4.364;2024-03-06T15:08:10;14.70;81.60
23079;DHT22;11707;50.830;4.364;2024-03-06T15:10:36;14.60;83.90
23079;DHT22;11707;50.830;4.364;2024-03-06T15:13:02;14.60;76.90
23079;DHT22;11707;50.830;4.364;2024-03-06T15:15:27;14.50;91.30
23079;DHT22;11707;50.830;4.364;2024-03-06T15:17:53;14.60;62.30
23079;DHT22;11707;50.830;4.364;2024-03-06T15:20:19;14.70;45.90
23079;DHT22;11707;50.830;4.364;2024-03-06T15:22:45;14.80;34.60
23079;DHT22;11707;50.830;4.364;2024-03-06T15:25:12;14.90;39.30
23079;DHT22;11707;50.830;4.364;2024-03-06T15:27:38;15.00;20.40
23079;DHT22;11707;50.830;4.364;2024-03-06T15:30:05;14.70;37.00
23079;DHT22;11707;50.830;4.364;2024-03-06T15:32:33;14.80;53.00
23079;DHT22;11707;50.830;4.364;2024-03-06T15:34:59;14.60;55.60
23079;DHT22;11707;50.830;4.364;2024-03-06T15:37:25;14.40;65.90
23079;DHT22;11707;50.830;4.364;2024-03-06T15:39:52;14.20;73.80
23079;DHT22;11707;50.830;4.364;2024-03-06T15:42:18;14.10;94.90
23079;DHT22;11707;50.830;4.364;2024-03-06T15:44:43;13.90;90.50
23079;DHT22;11707;50.830;4.364;2024-03-06T15:47:09;13.70;99.80
23079;DHT22;11707;50.830;4.364;2024-03-06T15:49:35;13.70;99.90
23079;DHT22;11707;50.830;4.364;2024-03-06T15:52:01;13.50;99.90
23079;DHT22;11707;50.830;4.364;2024-03-06T15:54:27;13.40;99.90
23079;DHT22;11707;50.830;4.364;2024-03-06T15:56:52;13.20;99.90
23079;DHT22;11707;50.830;4.364;2024-03-06T15:59:18;13.40;99.90
23079;DHT22;11707;50.830;4.364;2024-03-06T16:01:44;13.20;99.90
23079;DHT22;11707;50.830;4.364;2024-03-06T16:04:10;13.40;99.90
23079;DHT22;11707;50.830;4.364;2024-03-06T16:06:38;13.40;99.90
23079;DHT22;11707;50.830;4.364;2024-03-06T16:09:05;13.20;98.20